KMOX/MOX METAR and TAF weather

Enter ICAO airport designator
Station Type Date Time Source
KMOX METAR 2022/06/30 13:55 UTC NOAA

KMOX 301355Z AUTO 25006KT 10SM CLR 24/16 A2979 RMK AO2


Station Type Date Time Source
KMOX Decoded METAR 2022/06/30 13:55 UTC NOAA

Morris, Morris Municipal Airport, MN, United States (KMOX) 45-34N 095-58W
Jun 30, 2022 - 09:55 AM EDT / 2022.06.30 1355 UTC
Wind: from the WSW (250 degrees) at 7 MPH (6 KT):0
Visibility: 10 mile(s):0
Sky conditions: clear
Temperature: 75 F (24 C)
Dew Point: 60 F (16 C)
Relative Humidity: 60%
Pressure (altimeter): 29.79 in. Hg (1008 hPa)
ob: KMOX 301355Z AUTO 25006KT 10SM CLR 24/16 A2979 RMK AO2
cycle: 14

Station Type Date Time Source
KMOX TAF UTC NOAA

Error!

Example: see airport list